Time;durP1;ratioP1;P1;durP2;ratioP2;P2;SDS_P1;SDS_P2;PMS_P1;PMS_P2;Temp;Humidity;BMP_temperature;BMP_pressure;BME280_temperature;BME280_humidity;BME280_pressure;Samples;Min_cycle;Max_cycle;Signal;HPM_P1;HPM_P2
2021/09/09 00:00:38;;;;;;;38.30;18.42;;;;;;;12.42;74.33;99403.93;2212031;79;21508;-74
2021/09/09 00:03:40;;;;;;;29.77;14.00;;;;;;;12.37;74.46;99400.71;2211810;79;21064;-72
2021/09/09 00:06:41;;;;;;;33.63;16.40;;;;;;;12.29;74.61;99402.01;2212155;79;21073;-73
2021/09/09 00:09:43;;;;;;;23.77;9.85;;;;;;;12.26;74.96;99396.09;2212285;79;21203;-74
2021/09/09 00:12:44;;;;;;;22.87;9.77;;;;;;;12.21;75.19;99396.38;2212078;79;21099;-74
2021/09/09 00:15:46;;;;;;;23.07;9.23;;;;;;;12.21;75.61;99399.45;2212070;80;21591;-74
2021/09/09 00:18:47;;;;;;;21.70;9.25;;;;;;;12.22;75.67;99401.16;2212179;79;21024;-71
2021/09/09 00:21:49;;;;;;;26.02;11.28;;;;;;;12.24;75.50;99400.59;2212152;79;20988;-73
2021/09/09 00:24:50;;;;;;;35.17;16.93;;;;;;;12.15;75.04;99401.14;2212389;79;21015;-74
2021/09/09 00:27:51;;;;;;;35.77;17.83;;;;;;;12.10;76.29;99404.88;2211901;79;21078;-72
2021/09/09 00:30:53;;;;;;;36.00;17.47;;;;;;;12.10;74.97;99405.36;2212274;79;21119;-71
2021/09/09 00:33:54;;;;;;;26.23;11.10;;;;;;;11.97;74.56;99398.65;2212154;79;21037;-74
2021/09/09 00:36:56;;;;;;;28.27;10.87;;;;;;;11.91;74.86;99395.88;2211985;79;21610;-74
2021/09/09 00:39:57;;;;;;;30.23;13.80;;;;;;;11.83;74.22;99398.08;2212175;79;21021;-73
2021/09/09 00:42:59;;;;;;;36.70;18.23;;;;;;;11.73;74.77;99398.23;2211761;80;21116;-73
2021/09/09 00:46:00;;;;;;;68.93;34.83;;;;;;;11.70;75.40;99395.78;2212223;80;21507;-71
2021/09/09 00:49:02;;;;;;;42.67;21.57;;;;;;;11.70;75.67;99398.41;2212130;79;21048;-74
2021/09/09 00:52:03;;;;;;;45.90;22.93;;;;;;;11.77;75.85;99395.81;2212241;79;21119;-74
2021/09/09 00:55:04;;;;;;;47.03;26.95;;;;;;;11.85;75.84;99397.55;2212088;79;21040;-74
2021/09/09 00:58:06;;;;;;;45.37;24.63;;;;;;;11.91;75.28;99393.69;2212030;79;21536;-74
2021/09/09 01:01:07;;;;;;;36.95;17.75;;;;;;;11.88;74.98;99392.55;2212222;79;21021;-74
2021/09/09 01:04:09;;;;;;;53.13;26.70;;;;;;;11.80;75.04;99393.00;2212307;79;21543;-74
2021/09/09 01:07:10;;;;;;;78.35;38.05;;;;;;;11.76;75.14;99393.63;2212430;79;20988;-72
2021/09/09 01:10:12;;;;;;;37.25;18.07;;;;;;;11.74;75.39;99391.57;2211997;79;21024;-75
2021/09/09 01:13:13;;;;;;;36.00;16.37;;;;;;;11.73;75.35;99396.44;2212319;79;21033;-74
2021/09/09 01:16:14;;;;;;;44.13;20.97;;;;;;;11.69;75.11;99400.17;2212287;79;21091;-73
2021/09/09 01:19:16;;;;;;;32.73;16.25;;;;;;;11.66;74.72;99394.25;2212315;79;21626;-74
2021/09/09 01:22:17;;;;;;;31.80;15.55;;;;;;;11.55;74.71;99389.14;2212334;79;21009;-73
2021/09/09 01:25:19;;;;;;;33.08;15.63;;;;;;;11.50;74.81;99392.95;2212177;79;21539;-73
2021/09/09 01:28:20;;;;;;;36.42;16.82;;;;;;;11.42;74.96;99393.36;2212311;79;21022;-74
2021/09/09 01:31:22;;;;;;;52.27;26.05;;;;;;;11.36;75.00;99390.61;2212313;79;21555;-72
2021/09/09 01:34:24;;;;;;;46.58;22.93;;;;;;;11.34;75.56;99394.28;2212238;79;21064;-70
2021/09/09 01:37:26;;;;;;;44.55;21.90;;;;;;;11.31;75.30;99396.59;2222548;79;21606;-73
2021/09/09 01:40:27;;;;;;;48.55;22.05;;;;;;;11.33;75.71;99393.41;2225821;79;20980;-73
2021/09/09 01:43:29;;;;;;;37.37;17.47;;;;;;;11.35;75.89;99392.88;2225694;79;21023;-73
2021/09/09 01:46:30;;;;;;;33.77;15.30;;;;;;;11.42;76.01;99392.05;2225773;79;21020;-74
2021/09/09 01:49:32;;;;;;;33.97;15.27;;;;;;;11.46;75.13;99400.63;2225724;79;21019;-73
2021/09/09 01:52:33;;;;;;;33.18;16.40;;;;;;;11.35;75.20;99399.44;2225709;79;20965;-74
2021/09/09 01:55:35;;;;;;;47.85;22.50;;;;;;;11.28;75.29;99394.15;2225599;79;21003;-74
2021/09/09 01:58:36;;;;;;;36.00;17.93;;;;;;;11.15;75.57;99399.66;2225652;79;21535;-74
2021/09/09 02:01:38;;;;;;;37.45;17.23;;;;;;;11.12;75.69;99399.83;2225508;80;20977;-73
2021/09/09 02:04:40;;;;;;;49.30;18.77;;;;;;;11.12;76.00;99403.33;2225379;79;21516;-73
2021/09/09 02:07:41;;;;;;;47.60;21.20;;;;;;;11.14;75.72;99397.98;2225888;79;21008;-74
2021/09/09 02:10:42;;;;;;;42.20;19.37;;;;;;;11.07;75.36;99400.92;2225638;79;20968;-73
2021/09/09 02:13:44;;;;;;;48.43;20.50;;;;;;;11.02;75.49;99394.22;2225606;79;20960;-74
2021/09/09 02:16:45;;;;;;;47.87;20.67;;;;;;;10.96;75.79;99402.44;2225602;79;21004;-71
2021/09/09 02:19:47;;;;;;;38.38;16.15;;;;;;;10.92;76.22;99394.73;2225765;79;20964;-73
2021/09/09 02:22:48;;;;;;;40.65;17.30;;;;;;;10.90;76.66;99396.61;2225669;79;20968;-74
2021/09/09 02:25:50;;;;;;;36.73;17.10;;;;;;;10.82;76.61;99397.91;2225609;79;21423;-74
2021/09/09 02:28:51;;;;;;;30.02;13.35;;;;;;;10.83;77.20;99397.86;2225813;79;21024;-75
2021/09/09 02:31:53;;;;;;;24.35;10.48;;;;;;;10.83;77.52;99391.30;2225216;79;21044;-74
2021/09/09 02:34:54;;;;;;;31.33;14.80;;;;;;;10.84;76.92;99385.10;2225705;79;21008;-74
2021/09/09 02:37:56;;;;;;;29.40;12.63;;;;;;;10.80;77.29;99388.81;2213605;79;20989;-74
2021/09/09 02:40:57;;;;;;;32.25;14.60;;;;;;;10.80;77.46;99390.60;2212262;79;21459;-74
2021/09/09 02:43:59;;;;;;;30.15;13.62;;;;;;;10.86;77.84;99392.89;2211787;80;21076;-73
2021/09/09 02:47:00;;;;;;;35.80;17.73;;;;;;;10.90;77.53;99393.11;2212182;79;21040;-74
2021/09/09 02:50:02;;;;;;;37.73;17.47;;;;;;;10.89;78.20;99388.34;2211991;80;20974;-74
2021/09/09 02:53:03;;;;;;;44.43;20.90;;;;;;;10.91;78.11;99386.95;2212245;79;21088;-74
2021/09/09 02:56:05;;;;;;;28.70;12.45;;;;;;;10.88;77.66;99386.64;2212304;79;21004;-74
2021/09/09 02:59:06;;;;;;;29.02;11.78;;;;;;;10.83;77.71;99392.61;2212171;79;21048;-74
2021/09/09 03:02:07;;;;;;;30.40;13.90;;;;;;;10.77;77.75;99396.84;2212203;79;21576;-73
2021/09/09 03:05:09;;;;;;;27.13;12.18;;;;;;;10.69;77.15;99392.49;2212238;79;21025;-74
2021/09/09 03:08:11;;;;;;;40.63;18.55;;;;;;;10.67;77.74;99393.02;2212046;79;21575;-73
2021/09/09 03:11:12;;;;;;;51.23;24.63;;;;;;;10.69;78.05;99391.18;2212342;79;21032;-71
2021/09/09 03:14:14;;;;;;;45.78;21.00;;;;;;;10.69;78.07;99388.08;2212255;79;21015;-74
2021/09/09 03:17:15;;;;;;;30.30;13.60;;;;;;;10.70;78.33;99398.10;2212307;80;21005;-74
2021/09/09 03:20:16;;;;;;;37.03;17.73;;;;;;;10.68;78.35;99394.72;2212229;80;21041;-72
2021/09/09 03:23:18;;;;;;;40.43;17.82;;;;;;;10.64;77.85;99393.19;2211952;79;21071;-73
2021/09/09 03:26:19;;;;;;;41.15;18.70;;;;;;;10.56;77.52;99390.50;2211807;79;21081;-72
2021/09/09 03:29:21;;;;;;;38.15;16.95;;;;;;;10.54;77.64;99394.98;2212004;79;21508;-71
2021/09/09 03:32:22;;;;;;;35.63;16.52;;;;;;;10.50;77.29;99396.52;2212094;79;21009;-73
2021/09/09 03:35:24;;;;;;;25.43;10.93;;;;;;;10.49;78.70;99393.05;2212147;79;21060;-71
2021/09/09 03:38:25;;;;;;;23.98;8.23;;;;;;;10.44;77.93;99391.12;2224323;79;21047;-73
2021/09/09 03:41:26;;;;;;;21.93;8.53;;;;;;;10.35;77.65;99388.98;2225596;79;20992;-73
2021/09/09 03:44:28;;;;;;;28.13;12.07;;;;;;;10.34;78.15;99393.83;2225551;79;21000;-73
2021/09/09 03:47:29;;;;;;;22.87;9.80;;;;;;;10.28;78.28;99386.25;2225212;80;20937;-73
2021/09/09 03:50:31;;;;;;;22.82;9.15;;;;;;;10.22;78.70;99391.34;2225274;79;21448;-73
2021/09/09 03:53:32;;;;;;;28.38;11.95;;;;;;;10.13;78.51;99389.17;2224944;80;21051;-74
2021/09/09 03:56:33;;;;;;;22.17;9.45;;;;;;;10.16;78.92;99385.11;2225242;79;21000;-74
2021/09/09 03:59:35;;;;;;;25.35;9.80;;;;;;;10.19;78.77;99380.55;2225420;79;20972;-73
2021/09/09 04:02:36;;;;;;;26.07;11.18;;;;;;;10.11;78.32;99378.77;2225313;79;21019;-73
2021/09/09 04:05:38;;;;;;;29.20;12.98;;;;;;;10.08;78.56;99376.78;2225042;79;21049;-73
2021/09/09 04:08:40;;;;;;;29.23;13.00;;;;;;;10.12;79.05;99378.32;2225555;79;20972;-74
2021/09/09 04:11:41;;;;;;;29.63;13.27;;;;;;;10.15;78.97;99377.69;2225566;79;21496;-74
2021/09/09 04:14:42;;;;;;;30.92;14.50;;;;;;;10.14;79.22;99373.84;2225663;79;20975;-72
2021/09/09 04:17:45;;;;;;;27.13;12.20;;;;;;;10.25;79.79;99375.45;2224886;80;21817;-73
2021/09/09 04:20:46;;;;;;;32.53;14.40;;;;;;;10.20;79.93;99374.83;2225360;79;21031;-73
2021/09/09 04:23:48;;;;;;;33.18;16.00;;;;;;;10.22;79.94;99375.14;2225299;79;20960;-72
2021/09/09 04:26:49;;;;;;;37.48;18.02;;;;;;;10.29;79.98;99370.92;2225404;80;21112;-71
2021/09/09 04:29:51;;;;;;;30.48;13.83;;;;;;;10.39;80.29;99377.41;2225322;79;20972;-73
2021/09/09 04:32:52;;;;;;;27.67;12.60;;;;;;;10.52;80.06;99377.63;2225296;79;21459;-72
2021/09/09 04:35:54;;;;;;;28.83;13.08;;;;;;;10.56;79.32;99370.83;2225211;79;21023;-72
2021/09/09 04:38:55;;;;;;;34.70;16.27;;;;;;;10.64;79.21;99373.03;2212342;80;21003;-72
2021/09/09 04:41:58;;;;;;;36.53;16.20;;;;;;;10.73;79.43;99375.63;2212630;80;20969;-73
2021/09/09 04:45:00;;;;;;;35.48;17.85;;;;;;;10.83;79.68;99378.18;2212068;80;21547;-70
2021/09/09 04:48:02;;;;;;;38.17;20.47;;;;;;;10.96;79.68;99369.19;2211990;79;21001;-70
2021/09/09 04:51:03;;;;;;;45.03;22.62;;;;;;;11.13;79.68;99367.41;2212220;80;21527;-73
2021/09/09 04:54:05;;;;;;;48.58;26.93;;;;;;;11.26;79.51;99359.23;2212503;79;20960;-72
2021/09/09 04:57:06;;;;;;;45.03;23.00;;;;;;;11.42;79.73;99365.34;2212315;79;21001;-71
2021/09/09 05:00:07;;;;;;;42.67;21.10;;;;;;;11.67;79.85;99363.95;2212485;79;20996;-73
2021/09/09 05:03:09;;;;;;;44.23;22.50;;;;;;;11.84;79.35;99360.81;2212316;80;20937;-72
2021/09/09 05:06:10;;;;;;;39.27;21.17;;;;;;;12.00;79.45;99365.60;2212312;79;21476;-69
2021/09/09 05:09:12;;;;;;;40.60;20.35;;;;;;;12.23;79.51;99362.09;2212376;79;21045;-72
2021/09/09 05:12:13;;;;;;;38.10;19.82;;;;;;;12.50;79.13;99356.10;2212348;79;21516;-70
2021/09/09 05:15:15;;;;;;;39.15;20.40;;;;;;;12.64;78.73;99359.61;2212235;79;21016;-72
2021/09/09 05:18:16;;;;;;;42.13;19.62;;;;;;;12.83;78.88;99358.00;2211836;79;21560;-71
2021/09/09 05:21:18;;;;;;;42.85;20.20;;;;;;;13.09;78.52;99356.84;2212427;80;20964;-72
2021/09/09 05:24:19;;;;;;;41.80;20.62;;;;;;;13.32;78.14;99357.18;2212340;79;20945;-70
2021/09/09 05:27:21;;;;;;;37.57;19.03;;;;;;;13.63;78.06;99355.22;2212419;79;20969;-71
2021/09/09 05:30:22;;;;;;;43.57;20.97;;;;;;;13.89;77.59;99358.77;2212326;79;20961;-69
2021/09/09 05:33:24;;;;;;;37.37;19.17;;;;;;;14.08;76.94;99359.73;2212305;79;21513;-71
2021/09/09 05:36:25;;;;;;;40.97;19.73;;;;;;;14.27;76.96;99353.21;2213331;80;21065;-72
2021/09/09 05:39:26;;;;;;;36.80;18.30;;;;;;;14.42;76.65;99354.78;2225722;79;20976;-70
2021/09/09 05:42:28;;;;;;;33.78;17.48;;;;;;;14.62;76.86;99352.61;2225366;79;21020;-70
2021/09/09 05:45:30;;;;;;;35.27;17.37;;;;;;;14.81;76.43;99347.74;2225652;79;20968;-72
2021/09/09 05:48:32;;;;;;;35.78;18.62;;;;;;;15.12;76.03;99352.64;2225546;79;21636;-70
2021/09/09 05:51:34;;;;;;;38.98;18.60;;;;;;;15.37;76.10;99350.38;2225509;79;21479;-70
2021/09/09 05:54:36;;;;;;;36.63;18.27;;;;;;;15.66;75.14;99348.27;2225807;79;21056;-70
2021/09/09 05:57:37;;;;;;;33.77;16.87;;;;;;;15.83;74.96;99344.87;2225680;79;20969;-69
2021/09/09 06:00:38;;;;;;;32.90;16.67;;;;;;;16.05;74.14;99339.66;2225799;79;20949;-70
2021/09/09 06:03:40;;;;;;;36.37;17.67;;;;;;;16.28;74.15;99336.58;2225631;79;21017;-70
2021/09/09 06:06:41;;;;;;;33.55;15.93;;;;;;;16.53;73.67;99336.00;2225582;79;21059;-71
2021/09/09 06:09:43;;;;;;;35.00;17.15;;;;;;;16.77;73.40;99338.55;2225586;79;20971;-71
2021/09/09 06:12:44;;;;;;;34.30;17.42;;;;;;;17.03;73.03;99334.34;2225505;79;20960;-71
2021/09/09 06:15:46;;;;;;;32.73;16.67;;;;;;;17.39;71.74;99333.67;2225831;79;21114;-69
2021/09/09 06:18:47;;;;;;;36.30;17.77;;;;;;;17.39;71.74;99333.67;2225513;79;21699;-70
2021/09/09 06:21:49;;;;;;;34.00;17.57;;;;;;;17.49;71.54;99331.11;2225656;79;21451;-71
2021/09/09 06:24:50;;;;;;;36.83;17.67;;;;;;;17.59;71.11;99327.23;2225476;80;21256;-70
2021/09/09 06:27:52;;;;;;;32.53;17.23;;;;;;;17.82;71.31;99330.63;2225490;79;20954;-71
2021/09/09 06:30:53;;;;;;;34.45;17.07;;;;;;;18.03;70.70;99333.80;2225635;79;21059;-71
2021/09/09 06:33:55;;;;;;;34.70;17.37;;;;;;;18.23;70.52;99336.97;2225478;79;20972;-70
2021/09/09 06:36:56;;;;;;;34.65;17.37;;;;;;;18.39;69.61;99331.19;2225383;79;21530;-70
2021/09/09 06:39:57;;;;;;;32.88;16.15;;;;;;;18.49;69.69;99335.23;2225524;79;20980;-70
2021/09/09 06:42:59;;;;;;;32.33;15.90;;;;;;;18.70;69.14;99329.39;2225494;80;21004;-70
2021/09/09 06:46:00;;;;;;;34.20;16.70;;;;;;;18.94;68.69;99332.72;2225450;79;21023;-70
2021/09/09 06:49:03;;;;;;;35.13;17.40;;;;;;;19.10;68.75;99325.55;2225498;79;21476;-70
2021/09/09 06:52:05;;;;;;;33.10;16.75;;;;;;;19.26;68.26;99324.53;2225237;79;21019;-71
2021/09/09 06:55:06;;;;;;;30.88;16.05;;;;;;;19.50;68.10;99325.97;2225450;79;21028;-70
2021/09/09 06:58:07;;;;;;;34.70;16.07;;;;;;;19.78;67.68;99326.94;2225839;79;21009;-71
2021/09/09 07:01:09;;;;;;;30.72;15.88;;;;;;;20.10;67.26;99330.31;2225494;79;20937;-70
2021/09/09 07:04:10;;;;;;;33.28;16.10;;;;;;;20.37;66.09;99330.89;2225166;79;21016;-70
2021/09/09 07:07:12;;;;;;;31.80;14.78;;;;;;;20.61;66.37;99331.73;2225455;79;21000;-69
2021/09/09 07:10:13;;;;;;;32.40;15.13;;;;;;;20.78;65.49;99330.67;2225437;79;21490;-69
2021/09/09 07:13:17;;;;;;;33.83;15.80;;;;;;;21.03;64.97;99335.32;2225489;79;20984;-69
2021/09/09 07:16:18;;;;;;;29.02;15.15;;;;;;;21.17;64.85;99327.80;2206083;80;21023;-71
2021/09/09 07:19:20;;;;;;;30.30;15.68;;;;;;;21.35;64.65;99328.67;2225591;80;21511;-69
2021/09/09 07:22:21;;;;;;;31.33;14.07;;;;;;;21.58;63.72;99332.27;2225752;79;20941;-69
2021/09/09 07:25:22;;;;;;;30.43;14.70;;;;;;;21.73;63.17;99336.56;2226120;79;21065;-70
2021/09/09 07:28:25;;;;;;;29.57;15.03;;;;;;;21.88;62.83;99339.52;2225741;79;21096;-71
2021/09/09 07:31:26;;;;;;;30.60;14.15;;;;;;;22.12;62.15;99333.54;2225336;79;20992;-69
2021/09/09 07:34:28;;;;;;;27.67;14.07;;;;;;;22.35;61.62;99343.25;2225616;79;20972;-70
2021/09/09 07:37:29;;;;;;;31.42;14.70;;;;;;;22.44;59.97;99341.46;2222010;79;21020;-69
2021/09/09 07:40:31;;;;;;;30.52;15.38;;;;;;;22.46;60.67;99340.31;2212200;79;21024;-70
2021/09/09 07:43:32;;;;;;;27.52;13.72;;;;;;;22.55;60.16;99339.03;2212058;79;21084;-70
2021/09/09 07:46:34;;;;;;;26.93;13.50;;;;;;;22.78;60.66;99340.14;2212006;80;21551;-69
2021/09/09 07:49:35;;;;;;;29.42;14.13;;;;;;;23.03;59.76;99340.28;2212033;79;21031;-70
2021/09/09 07:52:37;;;;;;;29.57;14.03;;;;;;;23.17;59.15;99337.49;2212051;80;21475;-69
2021/09/09 07:55:38;;;;;;;30.72;14.45;;;;;;;23.34;58.99;99335.70;2211893;79;21086;-69
2021/09/09 07:58:40;;;;;;;30.02;13.43;;;;;;;23.41;58.15;99330.55;2212073;79;21041;-70
2021/09/09 08:01:44;;;;;;;28.40;13.28;;;;;;;23.49;57.55;99331.91;2211584;79;21100;-69
2021/09/09 08:04:45;;;;;;;28.83;14.13;;;;;;;23.53;57.54;99334.09;2212148;79;20981;-70
2021/09/09 08:07:47;;;;;;;28.10;12.95;;;;;;;23.66;57.11;99336.76;2212017;79;20969;-70
2021/09/09 08:10:48;;;;;;;26.82;12.53;;;;;;;23.85;57.21;99334.29;2211998;80;21507;-69
2021/09/09 08:13:52;;;;;;;28.32;12.65;;;;;;;24.06;56.37;99330.28;2212051;79;21072;-69
2021/09/09 08:16:53;;;;;;;26.05;12.30;;;;;;;24.09;55.78;99338.80;2201464;80;21052;-70
2021/09/09 08:19:54;;;;;;;26.75;12.23;;;;;;;24.20;55.61;99334.96;2212165;79;21846;-70
2021/09/09 08:22:56;;;;;;;27.40;12.28;;;;;;;24.39;55.29;99337.77;2212170;79;21072;-69
2021/09/09 08:25:57;;;;;;;27.58;12.07;;;;;;;24.58;54.43;99333.87;2211804;79;21566;-70
2021/09/09 08:28:59;;;;;;;24.45;10.63;;;;;;;24.58;53.69;99331.19;2212279;79;21029;-70
2021/09/09 08:32:00;;;;;;;23.45;10.35;;;;;;;24.81;52.00;99332.68;2212130;80;21064;-70
2021/09/09 08:35:02;;;;;;;24.37;10.32;;;;;;;24.92;51.88;99323.91;2212243;79;21040;-69
2021/09/09 08:38:03;;;;;;;24.02;10.20;;;;;;;24.93;51.95;99329.10;2212233;79;21053;-68
2021/09/09 08:41:05;;;;;;;22.15;9.40;;;;;;;25.12;52.13;99318.96;2212141;79;21067;-69
2021/09/09 08:44:06;;;;;;;25.62;10.75;;;;;;;25.23;50.72;99318.05;2212158;79;21068;-69
2021/09/09 08:47:07;;;;;;;25.52;9.80;;;;;;;25.40;50.55;99313.94;2212134;79;21548;-70
2021/09/09 08:50:09;;;;;;;21.55;9.35;;;;;;;25.52;49.56;99311.19;2212131;79;21084;-69
2021/09/09 08:53:11;;;;;;;28.38;9.38;;;;;;;25.64;48.41;99308.09;2211792;79;21072;-70
2021/09/09 08:56:13;;;;;;;24.32;8.85;;;;;;;25.69;48.65;99310.56;2211787;80;20966;-71
2021/09/09 08:59:14;;;;;;;22.87;9.03;;;;;;;25.73;47.53;99310.53;2212037;80;20976;-69
2021/09/09 09:02:17;;;;;;;25.82;9.38;;;;;;;25.67;45.91;99299.66;2212100;79;20969;-69
2021/09/09 09:05:19;;;;;;;21.12;8.63;;;;;;;25.78;47.59;99303.27;2211852;80;21032;-69
2021/09/09 09:08:20;;;;;;;25.32;8.63;;;;;;;25.83;48.15;99304.92;2211953;79;21048;-71
2021/09/09 09:11:22;;;;;;;21.68;7.87;;;;;;;26.06;47.23;99301.38;2211987;79;21596;-69
2021/09/09 09:14:25;;;;;;;22.15;7.40;;;;;;;26.28;46.26;99298.31;2212096;80;21072;-69
2021/09/09 09:17:26;;;;;;;22.13;8.78;;;;;;;26.48;46.24;99295.92;2212035;79;21012;-70
2021/09/09 09:20:28;;;;;;;21.62;8.15;;;;;;;26.52;46.00;99284.27;2212149;79;21539;-69
2021/09/09 09:23:29;;;;;;;23.25;8.40;;;;;;;26.63;45.28;99288.66;2212525;79;20966;-70
2021/09/09 09:26:31;;;;;;;21.97;8.30;;;;;;;26.77;44.81;99286.19;2212411;79;20981;-69
2021/09/09 09:29:32;;;;;;;22.10;8.40;;;;;;;26.90;44.82;99281.48;2212411;79;20960;-69
2021/09/09 09:32:34;;;;;;;20.90;8.30;;;;;;;27.09;44.13;99284.91;2212418;80;21016;-69
2021/09/09 09:35:35;;;;;;;21.23;8.30;;;;;;;27.22;43.83;99286.91;2212514;79;21004;-70
2021/09/09 09:38:37;;;;;;;19.82;7.08;;;;;;;27.25;43.50;99285.22;2212222;79;20966;-69
2021/09/09 09:41:38;;;;;;;20.25;7.37;;;;;;;27.06;41.47;99287.98;2212400;79;21464;-71
2021/09/09 09:44:40;;;;;;;;;;;;;;;27.09;42.40;99282.73;2214910;80;20978;-71
2021/09/09 09:47:42;;;;;;;21.57;7.37;;;;;;;27.13;41.53;99283.50;2212117;80;20098;-69
2021/09/09 09:50:43;;;;;;;;;;;;;;;27.01;41.29;99285.05;2214816;79;20993;-71
2021/09/09 09:53:45;;;;;;;20.82;6.97;;;;;;;27.11;41.36;99286.91;2212301;80;20401;-70
2021/09/09 09:56:46;;;;;;;19.42;6.33;;;;;;;27.24;39.78;99289.41;2212283;79;21044;-69
2021/09/09 09:59:48;;;;;;;20.50;7.17;;;;;;;27.28;40.63;99282.13;2212168;79;21518;-70
2021/09/09 10:02:51;;;;;;;19.15;6.45;;;;;;;27.30;39.43;99277.37;2212420;79;20969;-69
2021/09/09 10:05:53;;;;;;;19.57;7.10;;;;;;;27.28;38.99;99275.89;2212117;79;21463;-70
2021/09/09 10:08:54;;;;;;;20.72;6.80;;;;;;;27.27;39.59;99275.07;2212076;79;21029;-70
2021/09/09 10:11:56;;;;;;;;;;;;;;;27.46;39.60;99272.28;2214647;79;21567;-70
2021/09/09 10:14:57;;;;;;;20.12;7.42;;;;;;;27.68;38.63;99264.19;2212207;80;20102;-70
2021/09/09 10:17:59;;;;;;;22.15;7.05;;;;;;;27.85;38.41;99262.05;2212010;80;21598;-69
2021/09/09 10:21:02;;;;;;;19.50;7.20;;;;;;;28.03;38.72;99258.92;2212166;79;21040;-70
2021/09/09 10:24:03;;;;;;;18.82;6.33;;;;;;;27.95;36.23;99259.02;2201743;80;20973;-71
2021/09/09 10:27:05;;;;;;;21.52;6.65;;;;;;;27.93;38.11;99257.02;2212384;79;21453;-70
2021/09/09 10:30:06;;;;;;;19.62;6.10;;;;;;;28.12;37.21;99263.64;2212378;79;20989;-70
2021/09/09 10:33:08;;;;;;;;;;;;;;;28.13;37.00;99263.44;2214846;79;21017;-70
2021/09/09 10:36:09;;;;;;;18.23;6.28;;;;;;;28.34;36.03;99255.77;2212399;80;20105;-69
2021/09/09 10:39:11;;;;;;;20.62;6.62;;;;;;;28.42;37.05;99255.32;2219371;79;21005;-70
2021/09/09 10:42:12;;;;;;;20.88;6.58;;;;;;;28.46;36.20;99251.17;2225872;79;21072;-70
2021/09/09 10:45:14;;;;;;;19.70;6.80;;;;;;;28.59;36.17;99249.91;2225106;80;21048;-69
2021/09/09 10:48:15;;;;;;;;;;;;;;;28.57;34.84;99243.86;2228166;79;21503;-71
2021/09/09 10:51:17;;;;;;;18.23;6.67;;;;;;;28.54;36.05;99240.75;2225627;80;20090;-70
2021/09/09 10:54:18;;;;;;;19.87;6.60;;;;;;;28.51;35.48;99241.45;2225610;79;20968;-71
2021/09/09 10:57:20;;;;;;;;;;;;;;;28.68;35.85;99233.05;2228113;79;20969;-71
2021/09/09 11:00:21;;;;;;;21.10;6.30;;;;;;;28.75;35.09;99237.11;2225773;80;20101;-70
2021/09/09 11:03:23;;;;;;;;;;;;;;;28.79;35.01;99232.48;2228170;79;20929;-70
2021/09/09 11:06:24;;;;;;;20.55;6.78;;;;;;;28.90;35.33;99230.22;2225588;80;20153;-69
2021/09/09 11:09:25;;;;;;;;;;;;;;;28.99;34.27;99234.39;2228180;79;20956;-69
2021/09/09 11:12:27;;;;;;;18.73;7.10;;;;;;;29.00;34.93;99229.31;2225711;80;20101;-70
2021/09/09 11:15:28;;;;;;;18.05;6.05;;;;;;;29.06;34.88;99227.66;2225542;80;21039;-71
2021/09/09 11:18:30;;;;;;;;;;;;;;;29.08;34.32;99222.38;2228143;79;21424;-70
2021/09/09 11:21:32;;;;;;;19.90;7.60;;;;;;;29.19;33.67;99224.98;2225587;80;20101;-71
2021/09/09 11:24:35;;;;;;;19.55;6.37;;;;;;;29.14;32.90;99222.09;2225464;79;20941;-71
2021/09/09 11:27:36;;;;;;;18.48;6.47;;;;;;;29.15;33.34;99212.92;2225329;79;21479;-71
2021/09/09 11:30:38;;;;;;;;;;;;;;;29.14;33.45;99219.38;2228139;79;20961;-71
2021/09/09 11:33:39;;;;;;;20.35;6.78;;;;;;;29.14;32.42;99210.75;2225433;80;20409;-72
2021/09/09 11:36:41;;;;;;;;;;;;;;;29.27;32.99;99201.05;2227836;79;20985;-70
2021/09/09 11:39:42;;;;;;;19.17;6.53;;;;;;;29.29;32.61;99206.53;2216804;80;20441;-69
2021/09/09 11:42:44;;;;;;;;;;;;;;;29.31;33.40;99202.30;2214764;80;21032;-69
2021/09/09 11:45:45;;;;;;;;;;;;;;;29.33;33.30;99205.09;2214130;80;20519;-71
2021/09/09 11:48:47;;;;;;;20.23;6.80;;;;;;;29.37;32.81;99198.23;2212039;80;20114;-71
2021/09/09 11:51:48;;;;;;;;;;;;;;;29.31;32.83;99199.61;2214592;79;21020;-71
2021/09/09 11:54:50;;;;;;;20.72;7.10;;;;;;;29.32;33.48;99200.75;2211986;80;20082;-70
2021/09/09 11:57:51;;;;;;;18.90;6.33;;;;;;;29.41;32.46;99195.12;2211907;79;21527;-71
2021/09/09 12:00:52;;;;;;;;;;;;;;;29.57;33.69;99191.17;2214713;79;21017;-70
2021/09/09 12:03:54;;;;;;;19.92;6.95;;;;;;;29.71;32.97;99188.27;2211962;80;20404;-70
2021/09/09 12:06:55;;;;;;;;;;;;;;;29.71;32.06;99184.71;2214681;79;20983;-71
2021/09/09 12:09:57;;;;;;;18.55;6.62;;;;;;;29.76;32.21;99184.11;2212039;80;20386;-69
2021/09/09 12:12:59;;;;;;;20.43;6.95;;;;;;;29.75;32.44;99185.14;2212001;79;20997;-70
2021/09/09 12:16:01;;;;;;;18.90;6.53;;;;;;;29.74;32.36;99177.56;2212083;79;21000;-71
2021/09/09 12:19:03;;;;;;;;;;;;;;;29.85;32.33;99178.80;2214573;79;21052;-70
2021/09/09 12:22:04;;;;;;;20.15;6.90;;;;;;;29.91;31.10;99166.32;2212002;80;20094;-70
2021/09/09 12:25:06;;;;;;;19.40;6.65;;;;;;;29.75;31.86;99172.98;2211896;79;21088;-70
2021/09/09 12:28:10;;;;;;;18.85;6.22;;;;;;;29.82;31.33;99168.39;2211856;79;21119;-71
2021/09/09 12:31:11;;;;;;;18.27;5.90;;;;;;;29.77;30.36;99164.13;2201576;80;20970;-70
2021/09/09 12:34:13;;;;;;;18.02;6.00;;;;;;;29.59;30.44;99160.73;2212119;79;21503;-72
2021/09/09 12:37:15;;;;;;;20.20;6.47;;;;;;;29.51;31.05;99159.91;2212188;79;21036;-70
2021/09/09 12:40:16;;;;;;;19.23;6.22;;;;;;;29.73;31.37;99156.44;2211909;79;21535;-69
2021/09/09 12:43:18;;;;;;;21.45;6.65;;;;;;;29.73;31.72;99157.79;2212141;79;21017;-70
2021/09/09 12:46:19;;;;;;;;;;;;;;;29.75;31.32;99155.41;2214671;79;21025;-70
2021/09/09 12:49:21;;;;;;;18.65;6.72;;;;;;;29.75;30.96;99152.17;2212224;80;20126;-72
2021/09/09 12:52:23;;;;;;;19.17;6.45;;;;;;;29.78;31.47;99142.81;2211504;80;21568;-70
2021/09/09 12:55:25;;;;;;;;;;;;;;;29.78;31.88;99135.53;2214452;79;21048;-70
2021/09/09 12:58:26;;;;;;;20.43;6.58;;;;;;;29.79;31.34;99139.08;2212181;80;20118;-70
2021/09/09 13:01:28;;;;;;;17.85;6.60;;;;;;;29.88;31.44;99133.78;2212172;79;20997;-71
2021/09/09 13:04:29;;;;;;;;;;;;;;;29.96;31.71;99130.03;2214730;79;20981;-71
2021/09/09 13:07:32;;;;;;;19.37;5.90;;;;;;;30.06;31.04;99125.00;2212165;80;20098;-69
2021/09/09 13:10:34;;;;;;;18.85;6.00;;;;;;;29.95;30.55;99121.60;2212336;79;20957;-72
2021/09/09 13:13:35;;;;;;;19.57;6.37;;;;;;;29.81;30.28;99121.62;2212085;79;20961;-70
2021/09/09 13:16:38;;;;;;;17.23;5.78;;;;;;;29.78;29.62;99120.66;2212109;80;20992;-69
2021/09/09 13:19:40;;;;;;;19.23;6.60;;;;;;;29.76;30.74;99116.00;2212046;80;21527;-70
2021/09/09 13:22:41;;;;;;;18.65;5.80;;;;;;;29.88;30.29;99122.46;2212033;79;21080;-70
2021/09/09 13:25:44;;;;;;;19.25;6.35;;;;;;;29.78;30.00;99114.44;2211727;79;21548;-70
2021/09/09 13:28:45;;;;;;;18.80;6.85;;;;;;;29.72;30.42;99110.70;2212160;79;20959;-70
2021/09/09 13:31:47;;;;;;;19.52;6.67;;;;;;;29.71;30.82;99123.40;2212063;79;20941;-70
2021/09/09 13:34:48;;;;;;;18.73;6.30;;;;;;;29.66;30.60;99116.97;2212133;79;20945;-70
2021/09/09 13:37:49;;;;;;;19.48;6.60;;;;;;;29.81;31.14;99111.30;2212043;79;21021;-70
2021/09/09 13:40:51;;;;;;;18.82;6.15;;;;;;;29.99;31.57;99107.44;2222930;80;21491;-69
2021/09/09 13:43:52;;;;;;;20.52;6.30;;;;;;;30.01;30.16;99106.72;2225447;79;20984;-69
2021/09/09 13:46:54;;;;;;;18.75;6.15;;;;;;;29.93;29.41;99106.12;2225038;80;21507;-70
2021/09/09 13:49:56;;;;;;;20.05;6.78;;;;;;;29.67;30.19;99101.07;2225034;79;21535;-70
2021/09/09 13:52:58;;;;;;;18.80;6.53;;;;;;;29.69;30.43;99102.49;2225227;79;20949;-72
2021/09/09 13:56:00;;;;;;;18.90;6.30;;;;;;;29.76;30.10;99097.08;2225344;80;20997;-72
2021/09/09 13:59:01;;;;;;;;;;;;;;;29.90;30.41;99091.16;2228227;79;20968;-70
2021/09/09 14:02:03;;;;;;;18.48;6.70;;;;;;;29.95;30.59;99095.92;2225576;80;20118;-70
2021/09/09 14:05:06;;;;;;;;;;;;;;;29.88;30.09;99085.12;2228202;79;20960;-69